Time;durP1;ratioP1;P1;durP2;ratioP2;P2;SDS_P1;SDS_P2;PMS_P1;PMS_P2;Temp;Humidity;BMP_temperature;BMP_pressure;BME280_temperature;BME280_humidity;BME280_pressure;Samples;Min_cycle;Max_cycle;Signal;HPM_P1;HPM_P2
2022/04/10 00:01:53;;;;;;;5.35;2.30;;;8.50;55.30;;;;;;5034368;28;20026;-52
2022/04/10 00:04:19;;;;;;;3.78;1.88;;;8.40;55.60;;;;;;5033703;28;20172;-48
2022/04/10 00:06:45;;;;;;;8.90;2.40;;;8.40;55.80;;;;;;5034389;28;20463;-53
2022/04/10 00:09:13;;;;;;;5.38;1.75;;;8.40;55.90;;;;;;5034295;28;20472;-47
2022/04/10 00:11:39;;;;;;;4.22;1.83;;;8.30;56.60;;;;;;5033438;28;20056;-51
2022/04/10 00:14:05;;;;;;;4.47;2.10;;;8.30;56.20;;;;;;5034356;28;20056;-48
2022/04/10 00:16:49;;;;;;;6.95;2.45;;;8.30;56.10;;;;;;5033985;28;20520;-50
2022/04/10 00:19:15;;;;;;;5.68;2.50;;;8.30;56.00;;;;;;5033085;28;20029;-54
2022/04/10 00:21:42;;;;;;;4.85;2.30;;;8.30;56.80;;;;;;5033984;28;20419;-50
2022/04/10 00:24:08;;;;;;;5.85;2.25;;;8.20;57.30;;;;;;5033024;28;20053;-49
2022/04/10 00:26:34;;;;;;;7.95;2.42;;;8.10;57.50;;;;;;5034106;28;20208;-52
2022/04/10 00:29:00;;;;;;;5.63;2.70;;;8.10;57.50;;;;;;5034146;28;20405;-48
2022/04/10 00:31:26;;;;;;;6.47;2.92;;;8.10;57.60;;;;;;5031513;28;20033;-54
2022/04/10 00:33:51;;;;;;;5.68;2.70;;;8.10;58.00;;;;;;5033867;28;20030;-52
2022/04/10 00:36:17;;;;;;;5.82;2.60;;;8.10;57.70;;;;;;5033148;28;20108;-54
2022/04/10 00:38:44;;;;;;;6.75;2.95;;;8.10;57.70;;;;;;5033459;28;20537;-53
2022/04/10 00:41:10;;;;;;;6.13;2.83;;;8.20;57.50;;;;;;5033722;28;20030;-51
2022/04/10 00:43:38;;;;;;;6.13;2.70;;;8.20;57.60;;;;;;5033655;28;20159;-50
2022/04/10 00:46:04;;;;;;;6.05;2.83;;;8.20;57.70;;;;;;5034093;28;20087;-52
2022/04/10 00:48:30;;;;;;;8.07;2.50;;;8.20;57.80;;;;;;5032223;28;20108;-54
2022/04/10 00:53:55;;;;;;;6.47;2.72;;;8.20;57.70;;;;;;5011133;28;20240;-50
2022/04/10 00:56:21;;;;;;;8.15;3.08;;;8.20;57.80;;;;;;5032098;28;20163;-52
2022/04/10 00:58:47;;;;;;;5.45;2.65;;;8.10;58.00;;;;;;5033595;28;20096;-53
2022/04/10 01:01:12;;;;;;;7.18;2.90;;;8.10;58.10;;;;;;5033925;28;20042;-52
2022/04/10 01:03:38;;;;;;;7.57;3.15;;;8.00;58.80;;;;;;5015344;28;20071;-53
2022/04/10 01:06:04;;;;;;;6.07;2.65;;;8.00;58.90;;;;;;5032472;28;20052;-51
2022/04/10 01:08:30;;;;;;;8.68;2.40;;;7.90;59.00;;;;;;5032688;28;20044;-53
2022/04/10 01:10:56;;;;;;;8.45;2.78;;;8.00;58.90;;;;;;5031829;28;20056;-54
2022/04/10 01:13:23;;;;;;;7.32;2.92;;;7.90;59.20;;;;;;5032918;28;20072;-59
2022/04/10 01:15:49;;;;;;;8.95;2.85;;;7.90;59.30;;;;;;5033594;28;20052;-47
2022/04/10 01:18:15;;;;;;;5.35;2.30;;;7.90;59.00;;;;;;5032387;28;20487;-49
2022/04/10 01:20:41;;;;;;;6.07;2.40;;;8.00;58.90;;;;;;5031999;28;20025;-53
2022/04/10 01:23:07;;;;;;;5.47;2.50;;;7.90;58.90;;;;;;5032194;28;20029;-51
2022/04/10 01:25:33;;;;;;;6.43;2.67;;;7.90;59.30;;;;;;5032889;28;20083;-50
2022/04/10 01:28:01;;;;;;;6.43;2.50;;;7.90;59.20;;;;;;5032176;28;20427;-47
2022/04/10 01:30:27;;;;;;;5.97;2.70;;;7.80;59.40;;;;;;5031240;28;20057;-50
2022/04/10 01:32:53;;;;;;;6.55;2.58;;;7.80;59.40;;;;;;5033117;28;20072;-52
2022/04/10 01:35:24;;;;;;;8.13;2.45;;;7.80;59.30;;;;;;5031918;28;20033;-58
2022/04/10 01:37:52;;;;;;;6.75;2.55;;;7.80;59.30;;;;;;5032800;28;20053;-52
2022/04/10 01:40:19;;;;;;;5.68;2.20;;;7.80;59.10;;;;;;5031797;28;20029;-51
2022/04/10 01:42:44;;;;;;;5.35;2.25;;;7.80;59.10;;;;;;5030110;28;20116;-47
2022/04/10 01:45:10;;;;;;;3.88;2.33;;;7.80;59.10;;;;;;5031927;28;20072;-47
2022/04/10 01:47:38;;;;;;;6.72;2.30;;;7.90;58.90;;;;;;5031098;28;20692;-50
2022/04/10 01:50:04;;;;;;;6.05;2.55;;;7.90;59.50;;;;;;5031533;28;20072;-50
2022/04/10 01:52:30;;;;;;;5.60;2.42;;;7.90;58.80;;;;;;5032685;28;20029;-55
2022/04/10 01:54:56;;;;;;;5.85;2.60;;;7.90;58.80;;;;;;5031887;28;20021;-50
2022/04/10 01:57:21;;;;;;;6.80;2.83;;;7.90;59.00;;;;;;5031266;28;20026;-59
2022/04/10 01:59:47;;;;;;;7.35;2.70;;;7.80;58.90;;;;;;5032617;28;20029;-51
2022/04/10 02:02:13;;;;;;;3.53;2.30;;;7.80;58.90;;;;;;5031621;28;20033;-49
2022/04/10 02:04:39;;;;;;;6.00;2.60;;;7.80;59.10;;;;;;5031926;28;20025;-52
2022/04/10 02:07:05;;;;;;;6.07;2.65;;;7.80;59.00;;;;;;5031437;28;20464;-52
2022/04/10 02:09:30;;;;;;;4.80;2.08;;;7.80;59.10;;;;;;5030861;28;20464;-54
2022/04/10 02:11:56;;;;;;;5.57;2.60;;;7.80;59.10;;;;;;5030980;28;20463;-53
2022/04/10 02:14:22;;;;;;;4.80;2.40;;;7.70;59.20;;;;;;5031107;28;20025;-59
2022/04/10 02:16:47;;;;;;;6.90;2.83;;;7.60;59.60;;;;;;5032406;28;20034;-51
2022/04/10 02:19:13;;;;;;;7.07;2.50;;;7.60;59.70;;;;;;5031252;28;20033;-49
2022/04/10 02:21:39;;;;;;;5.75;2.65;;;7.60;59.40;;;;;;5030631;28;20063;-55
2022/04/10 02:24:05;;;;;;;4.38;2.17;;;7.60;59.50;;;;;;5032534;28;20384;-53
2022/04/10 02:26:31;;;;;;;5.90;2.50;;;7.70;59.50;;;;;;5031519;28;20029;-51
2022/04/10 02:28:57;;;;;;;4.60;2.30;;;7.70;59.50;;;;;;5032157;28;20131;-50
2022/04/10 02:31:23;;;;;;;5.05;2.10;;;7.70;59.50;;;;;;5032016;28;20492;-57
2022/04/10 02:33:49;;;;;;;4.38;2.40;;;7.70;59.80;;;;;;5031858;28;20156;-53
2022/04/10 02:36:16;;;;;;;6.43;2.63;;;7.60;60.00;;;;;;5032180;28;20026;-53
2022/04/10 02:38:43;;;;;;;5.35;2.63;;;7.60;60.10;;;;;;5031468;28;20041;-54
2022/04/10 02:41:09;;;;;;;8.50;2.88;;;7.50;60.10;;;;;;5031138;28;20383;-59
2022/04/10 02:43:35;;;;;;;3.78;2.20;;;7.60;60.40;;;;;;5031769;28;20025;-52
2022/04/10 02:46:00;;;;;;;4.22;2.10;;;7.50;60.60;;;;;;5032186;28;20523;-54
2022/04/10 02:48:26;;;;;;;7.65;2.60;;;7.50;61.20;;;;;;5031477;28;20434;-61
2022/04/10 02:50:52;;;;;;;5.20;2.70;;;7.40;61.20;;;;;;5032138;28;20116;-52
2022/04/10 02:53:18;;;;;;;5.88;2.70;;;7.50;61.00;;;;;;5031896;28;20486;-53
2022/04/10 02:55:43;;;;;;;7.80;2.55;;;7.40;61.30;;;;;;5031425;28;20084;-51
2022/04/10 02:58:09;;;;;;;6.88;3.00;;;7.40;61.70;;;;;;5032148;28;20053;-54
2022/04/10 03:00:35;;;;;;;4.30;2.53;;;7.40;61.70;;;;;;5031457;28;20546;-54
2022/04/10 03:03:00;;;;;;;7.18;3.00;;;7.40;62.00;;;;;;5031812;28;20029;-52
2022/04/10 03:05:26;;;;;;;7.93;3.00;;;7.30;62.70;;;;;;5030831;28;20380;-62
2022/04/10 03:07:52;;;;;;;7.10;3.20;;;7.30;62.70;;;;;;5030565;28;20080;-55
2022/04/10 03:10:18;;;;;;;5.60;2.85;;;7.20;62.50;;;;;;5031501;28;20091;-49
2022/04/10 03:12:43;;;;;;;5.75;3.10;;;7.20;62.60;;;;;;5030266;28;20365;-55
2022/04/10 03:15:09;;;;;;;10.25;3.78;;;7.20;62.80;;;;;;5031872;28;20029;-51
2022/04/10 03:17:35;;;;;;;5.82;3.20;;;7.20;63.00;;;;;;5031581;28;20036;-47
2022/04/10 03:20:01;;;;;;;5.97;2.78;;;7.20;62.70;;;;;;5031616;28;20067;-51
2022/04/10 03:22:27;;;;;;;5.20;2.80;;;7.20;62.50;;;;;;5030533;28;20049;-57
2022/04/10 03:24:53;;;;;;;5.63;3.10;;;7.20;62.20;;;;;;5031563;28;20039;-53
2022/04/10 03:27:19;;;;;;;8.05;3.80;;;7.30;62.00;;;;;;5031888;28;20030;-52
2022/04/10 03:29:44;;;;;;;5.00;3.25;;;7.30;61.90;;;;;;5030937;28;20117;-47
2022/04/10 03:32:10;;;;;;;6.50;3.33;;;7.40;61.70;;;;;;5031838;28;20044;-50
2022/04/10 03:34:36;;;;;;;11.10;3.38;;;7.40;61.50;;;;;;5030959;28;20029;-48
2022/04/10 03:37:02;;;;;;;7.05;2.92;;;7.40;61.40;;;;;;5031840;28;20030;-48
2022/04/10 03:39:28;;;;;;;7.95;3.15;;;7.40;61.30;;;;;;5029847;28;20053;-54
2022/04/10 03:41:53;;;;;;;6.65;3.75;;;7.40;61.40;;;;;;5031149;28;20033;-51
2022/04/10 03:44:19;;;;;;;9.55;3.35;;;7.30;61.40;;;;;;5031758;28;20021;-50
2022/04/10 03:46:45;;;;;;;8.45;3.67;;;7.20;61.50;;;;;;5031234;28;20100;-48
2022/04/10 03:49:10;;;;;;;9.73;3.60;;;7.20;61.30;;;;;;5031134;28;20396;-50
2022/04/10 03:51:36;;;;;;;6.82;3.25;;;7.20;61.30;;;;;;5029385;28;20060;-49
2022/04/10 03:54:02;;;;;;;7.65;3.80;;;7.20;61.30;;;;;;5030954;28;20037;-51
2022/04/10 03:56:27;;;;;;;6.60;3.33;;;7.20;61.40;;;;;;5031190;28;20028;-56
2022/04/10 03:58:53;;;;;;;6.43;3.60;;;7.10;61.50;;;;;;5030766;28;20574;-53
2022/04/10 04:01:19;;;;;;;7.97;3.85;;;7.10;61.80;;;;;;5030919;28;20095;-55
2022/04/10 04:03:45;;;;;;;4.72;3.60;;;7.10;61.80;;;;;;5030037;28;20030;-54
2022/04/10 04:06:10;;;;;;;8.52;3.83;;;7.10;62.00;;;;;;5033816;28;20032;-53
2022/04/10 04:08:36;;;;;;;6.30;3.53;;;7.10;61.90;;;;;;5034844;28;20056;-54
2022/04/10 04:11:02;;;;;;;6.72;3.60;;;7.20;61.90;;;;;;5033654;28;20083;-52
2022/04/10 04:13:28;;;;;;;12.00;4.28;;;7.20;62.30;;;;;;5033355;28;20022;-52
2022/04/10 04:15:54;;;;;;;6.68;3.92;;;7.10;62.30;;;;;;5034177;28;20029;-53
2022/04/10 04:18:19;;;;;;;6.20;4.07;;;7.10;62.60;;;;;;5034499;28;20033;-55
2022/04/10 04:20:45;;;;;;;9.40;4.45;;;7.10;63.00;;;;;;5033978;28;20025;-53
2022/04/10 04:23:11;;;;;;;9.00;4.30;;;7.00;63.10;;;;;;5034259;28;20460;-54
2022/04/10 04:25:37;;;;;;;7.95;4.70;;;7.00;63.50;;;;;;5034076;28;20029;-52
2022/04/10 04:28:04;;;;;;;8.52;4.43;;;7.00;63.70;;;;;;5034741;28;20067;-50
2022/04/10 04:30:30;;;;;;;9.65;4.68;;;6.90;63.80;;;;;;5033108;28;20036;-53
2022/04/10 04:32:56;;;;;;;8.38;4.57;;;6.90;63.70;;;;;;5033696;28;20029;-53
2022/04/10 04:35:22;;;;;;;7.30;3.88;;;6.90;64.10;;;;;;5034618;28;20025;-53
2022/04/10 04:37:47;;;;;;;7.72;4.05;;;6.90;63.80;;;;;;5033445;28;20028;-54
2022/04/10 04:40:15;;;;;;;8.00;4.30;;;7.00;63.70;;;;;;5034742;28;20064;-48
2022/04/10 04:42:41;;;;;;;7.20;4.55;;;6.90;63.80;;;;;;5032680;28;20031;-55
2022/04/10 04:45:08;;;;;;;7.28;4.07;;;6.90;63.80;;;;;;5032445;28;20507;-51
2022/04/10 04:47:34;;;;;;;7.63;4.10;;;6.90;63.80;;;;;;5033763;28;20025;-59
2022/04/10 04:49:59;;;;;;;9.70;4.20;;;6.90;63.50;;;;;;5033612;28;20441;-50
2022/04/10 04:52:25;;;;;;;8.50;4.35;;;7.00;63.30;;;;;;5033609;28;20033;-50
2022/04/10 04:54:51;;;;;;;5.70;4.18;;;7.10;62.90;;;;;;5032744;28;20037;-50
2022/04/10 04:57:16;;;;;;;8.77;4.10;;;7.10;62.50;;;;;;5034155;28;20419;-50
2022/04/10 04:59:42;;;;;;;7.65;4.32;;;7.20;62.20;;;;;;5033154;28;20116;-50
2022/04/10 05:02:08;;;;;;;5.72;3.50;;;7.20;61.90;;;;;;5032260;28;20018;-55
2022/04/10 05:04:35;;;;;;;6.47;4.32;;;7.20;61.50;;;;;;5032784;28;20036;-51
2022/04/10 05:07:00;;;;;;;7.38;3.70;;;7.30;61.20;;;;;;5033057;28;20061;-54
2022/04/10 05:09:26;;;;;;;5.82;3.40;;;7.40;60.80;;;;;;5032809;28;20056;-52
2022/04/10 05:11:52;;;;;;;5.68;3.28;;;7.40;60.40;;;;;;5032586;28;20476;-47
2022/04/10 05:14:17;;;;;;;7.68;3.50;;;7.40;60.20;;;;;;5033642;28;20372;-50
2022/04/10 05:16:43;;;;;;;5.57;3.10;;;7.50;59.80;;;;;;5031335;28;20380;-51
2022/04/10 05:19:09;;;;;;;5.22;3.17;;;7.50;59.30;;;;;;5033119;28;20025;-46
2022/04/10 05:21:35;;;;;;;7.47;3.17;;;7.50;59.10;;;;;;5033170;28;20030;-50
2022/04/10 05:24:00;;;;;;;8.10;2.90;;;7.50;58.70;;;;;;5032931;28;20056;-47
2022/04/10 05:26:26;;;;;;;6.47;2.75;;;7.60;58.60;;;;;;5015750;28;20395;-49
2022/04/10 05:28:52;;;;;;;6.13;3.10;;;7.60;58.20;;;;;;5032335;28;20103;-52
2022/04/10 05:31:18;;;;;;;6.05;3.05;;;7.60;57.70;;;;;;5032231;28;20033;-47
2022/04/10 05:33:43;;;;;;;6.13;2.50;;;7.70;57.60;;;;;;5032858;28;20495;-52
2022/04/10 05:36:09;;;;;;;6.72;3.00;;;7.70;57.30;;;;;;5033374;28;20022;-52
2022/04/10 05:38:35;;;;;;;7.72;2.97;;;7.80;57.00;;;;;;5015297;28;20049;-49
2022/04/10 05:41:01;;;;;;;6.68;2.70;;;7.80;56.30;;;;;;5032372;28;20122;-51
2022/04/10 05:43:26;;;;;;;9.10;2.78;;;7.80;56.10;;;;;;5031954;28;20025;-52
2022/04/10 05:45:52;;;;;;;5.05;2.45;;;7.90;56.30;;;;;;5032523;28;20448;-51
2022/04/10 05:48:18;;;;;;;7.10;2.88;;;7.90;55.90;;;;;;5033051;28;20025;-47
2022/04/10 05:50:44;;;;;;;5.22;2.40;;;8.00;55.30;;;;;;5031964;28;20462;-50
2022/04/10 05:53:10;;;;;;;4.82;2.63;;;8.00;55.00;;;;;;5032667;28;20075;-47
2022/04/10 05:55:36;;;;;;;7.22;2.65;;;8.00;55.00;;;;;;5032689;28;20067;-49
2022/04/10 05:58:03;;;;;;;6.55;2.75;;;8.10;54.50;;;;;;5031832;28;20079;-53
2022/04/10 06:00:30;;;;;;;7.43;2.40;;;8.10;54.40;;;;;;5032753;28;20029;-52
2022/04/10 06:03:00;;;;;;;4.70;2.50;;;8.20;54.30;;;;;;5032151;28;20098;-47
2022/04/10 06:05:25;;;;;;;6.53;2.67;;;8.30;54.20;;;;;;5032855;28;20028;-50
2022/04/10 06:07:51;;;;;;;5.03;2.53;;;8.40;53.80;;;;;;5030986;28;20026;-49
2022/04/10 06:10:17;;;;;;;6.30;2.75;;;8.40;53.30;;;;;;5032503;28;20389;-50
2022/04/10 06:12:42;;;;;;;3.80;2.50;;;8.40;53.10;;;;;;5031563;28;20125;-49
2022/04/10 06:15:09;;;;;;;6.88;3.10;;;8.50;53.10;;;;;;5032762;28;20029;-50
2022/04/10 06:17:34;;;;;;;6.65;2.97;;;8.40;52.90;;;;;;5031406;28;20030;-52
2022/04/10 06:20:00;;;;;;;5.90;2.58;;;8.50;52.90;;;;;;5030856;28;20614;-52
2022/04/10 06:22:26;;;;;;;7.40;2.65;;;8.50;53.00;;;;;;5032129;28;20121;-50
2022/04/10 06:24:53;;;;;;;5.93;2.55;;;8.60;52.90;;;;;;5030893;28;20051;-48
2022/04/10 06:27:20;;;;;;;8.90;3.03;;;8.60;52.20;;;;;;5029026;28;20469;-49
2022/04/10 06:29:46;;;;;;;5.47;2.60;;;8.60;52.30;;;;;;5030820;28;20037;-49
2022/04/10 06:32:13;;;;;;;8.85;3.05;;;8.70;52.10;;;;;;5029972;28;20388;-61
2022/04/10 06:34:38;;;;;;;8.60;2.90;;;8.80;52.00;;;;;;5031319;28;20017;-49
2022/04/10 06:37:05;;;;;;;5.18;2.60;;;8.90;51.50;;;;;;5030787;28;20040;-56
2022/04/10 06:39:30;;;;;;;7.35;2.63;;;8.90;51.50;;;;;;5030010;28;20045;-51
2022/04/10 06:41:56;;;;;;;5.75;2.50;;;8.90;51.10;;;;;;5029275;28;20392;-52
2022/04/10 06:44:22;;;;;;;6.28;2.75;;;8.90;51.30;;;;;;5030133;28;20034;-51
2022/04/10 06:46:48;;;;;;;6.57;2.33;;;8.90;51.20;;;;;;5030117;28;20044;-50
2022/04/10 06:49:14;;;;;;;10.52;3.00;;;9.00;51.30;;;;;;5029786;28;20511;-53
2022/04/10 06:51:41;;;;;;;5.53;3.03;;;9.10;51.10;;;;;;5029607;28;20048;-50
2022/04/10 06:54:07;;;;;;;6.25;2.78;;;9.20;50.60;;;;;;5030796;28;20029;-56
2022/04/10 06:56:33;;;;;;;7.03;2.92;;;9.20;50.10;;;;;;5030912;28;20049;-56
2022/04/10 06:58:59;;;;;;;8.38;3.20;;;9.30;49.40;;;;;;5030821;28;20025;-48
2022/04/10 07:01:25;;;;;;;6.40;3.05;;;9.20;49.90;;;;;;5030951;28;20029;-55
2022/04/10 07:03:51;;;;;;;5.70;2.60;;;9.30;50.90;;;;;;5028839;28;20029;-51
2022/04/10 07:06:16;;;;;;;6.50;2.75;;;9.60;50.00;;;;;;5029975;28;20080;-56
2022/04/10 07:08:43;;;;;;;7.68;2.80;;;9.70;49.00;;;;;;5030784;28;20095;-54
2022/04/10 07:11:10;;;;;;;6.75;2.78;;;9.70;49.00;;;;;;5029311;28;20034;-53
2022/04/10 07:13:35;;;;;;;6.20;2.78;;;9.70;49.00;;;;;;5030071;28;20034;-53
2022/04/10 07:16:01;;;;;;;7.10;3.45;;;9.80;49.10;;;;;;5031267;28;20379;-54
2022/04/10 07:18:27;;;;;;;8.18;3.33;;;10.10;49.50;;;;;;5030990;28;20041;-55
2022/04/10 07:20:53;;;;;;;6.55;3.78;;;12.80;47.10;;;;;;5029473;28;20034;-56
2022/04/10 07:26:06;;;;;;;6.05;3.80;;;19.60;37.30;;;;;;5031147;28;20063;-56
2022/04/10 07:28:38;;;;;;;5.68;3.55;;;22.00;32.20;;;;;;5030089;28;20053;-54
2022/04/10 07:31:06;;;;;;;5.75;3.30;;;23.80;30.00;;;;;;5030342;28;20068;-57
2022/04/10 07:33:33;;;;;;;6.47;3.72;;;26.00;28.10;;;;;;5032074;28;20022;-57
2022/04/10 07:35:59;;;;;;;5.28;3.35;;;28.00;26.50;;;;;;5029504;28;20422;-52
2022/04/10 07:38:25;;;;;;;7.50;3.78;;;29.20;24.40;;;;;;5030008;28;20141;-51
2022/04/10 07:40:51;;;;;;;5.55;3.45;;;29.50;23.80;;;;;;5033059;28;20034;-61
2022/04/10 07:43:35;;;;;;;8.18;3.45;;;30.80;23.00;;;;;;5033141;28;20040;-53
2022/04/10 07:48:45;;;;;;;15.63;3.08;;;32.90;21.90;;;;;;5034299;28;20117;-53
2022/04/10 07:51:10;;;;;;;4.95;2.60;;;32.40;21.10;;;;;;5033098;28;20436;-55
2022/04/10 07:53:36;;;;;;;13.70;3.20;;;32.80;21.00;;;;;;5035099;28;20021;-56
2022/04/10 07:56:02;;;;;;;3.75;2.53;;;33.60;20.50;;;;;;5033160;28;20501;-56
2022/04/10 07:58:28;;;;;;;4.18;2.65;;;34.10;20.30;;;;;;5034736;28;20025;-53
2022/04/10 08:00:54;;;;;;;4.78;2.42;;;34.80;19.90;;;;;;5032862;28;20159;-54
2022/04/10 08:03:19;;;;;;;5.03;2.70;;;34.50;19.70;;;;;;5034364;28;20033;-52
2022/04/10 08:05:45;;;;;;;5.85;2.75;;;34.50;19.70;;;;;;5034754;28;20025;-56
2022/04/10 08:08:11;;;;;;;14.90;3.45;;;35.30;19.60;;;;;;5032547;28;20290;-56
2022/04/10 08:10:39;;;;;;;6.63;2.80;;;36.60;19.50;;;;;;5034809;28;20134;-56
2022/04/10 08:13:05;;;;;;;5.10;2.70;;;37.30;18.90;;;;;;5033995;28;20387;-53
2022/04/10 08:15:30;;;;;;;3.85;2.78;;;37.10;18.90;;;;;;5033929;28;20038;-54
2022/04/10 08:17:56;;;;;;;4.05;2.45;;;36.90;19.00;;;;;;5033671;28;20025;-56
2022/04/10 08:20:23;;;;;;;4.03;2.50;;;36.60;18.90;;;;;;5034319;28;20076;-55
2022/04/10 08:22:50;;;;;;;3.75;2.13;;;36.80;18.80;;;;;;5033231;28;20112;-55
2022/04/10 08:25:23;;;;;;;5.28;2.08;;;37.80;18.70;;;;;;5033903;28;20028;-56
2022/04/10 08:27:49;;;;;;;3.05;2.20;;;37.50;17.70;;;;;;5034393;28;20391;-54
2022/04/10 08:30:15;;;;;;;5.93;2.65;;;36.70;18.10;;;;;;5033709;28;20037;-56
2022/04/10 08:32:42;;;;;;;8.98;2.95;;;35.20;18.00;;;;;;5033966;28;20104;-55
2022/04/10 08:35:10;;;;;;;4.28;1.88;;;34.60;17.90;;;;;;5033697;28;20083;-56
2022/04/10 08:37:36;;;;;;;4.60;2.40;;;34.00;18.00;;;;;;5032747;28;20044;-55
2022/04/10 08:40:03;;;;;;;5.50;2.60;;;33.30;18.20;;;;;;5033686;28;20111;-54
2022/04/10 08:42:29;;;;;;;4.32;1.65;;;33.00;18.70;;;;;;5034140;28;20021;-53
2022/04/10 08:44:56;;;;;;;3.67;1.67;;;32.80;18.60;;;;;;5033102;28;20036;-62
2022/04/10 08:47:22;;;;;;;5.00;1.98;;;30.60;19.30;;;;;;5033518;28;20025;-54
2022/04/10 08:49:49;;;;;;;3.67;2.20;;;28.60;19.80;;;;;;5033930;28;20156;-56
2022/04/10 08:52:20;;;;;;;5.97;2.08;;;27.30;20.60;;;;;;5030451;28;20108;-54
2022/04/10 08:54:47;;;;;;;5.35;1.92;;;26.30;20.70;;;;;;5033326;28;20061;-57
2022/04/10 08:57:13;;;;;;;4.60;2.10;;;24.80;21.30;;;;;;5032950;28;20025;-56
2022/04/10 08:59:40;;;;;;;5.97;2.33;;;23.20;22.30;;;;;;5032447;28;20051;-54
2022/04/10 09:02:07;;;;;;;5.78;2.47;;;22.20;23.40;;;;;;5032384;28;20036;-56
2022/04/10 09:04:33;;;;;;;6.45;2.97;;;21.50;23.90;;;;;;5032193;28;20036;-55
2022/04/10 09:07:07;;;;;;;9.60;2.20;;;21.10;24.50;;;;;;5032881;28;20030;-56
2022/04/10 09:09:34;;;;;;;4.28;2.00;;;20.40;24.90;;;;;;5032481;28;20373;-54
2022/04/10 09:12:01;;;;;;;4.90;2.30;;;20.10;25.20;;;;;;5033290;28;20029;-55
2022/04/10 09:14:35;;;;;;;5.38;2.30;;;19.70;25.70;;;;;;5033773;28;20056;-56
2022/04/10 09:17:19;;;;;;;5.40;1.90;;;18.90;26.30;;;;;;5031625;28;20033;-53
2022/04/10 09:19:45;;;;;;;7.80;2.38;;;18.10;27.60;;;;;;5033128;28;20052;-53
2022/04/10 09:22:30;;;;;;;7.65;2.60;;;17.20;29.10;;;;;;5032705;28;20487;-55
2022/04/10 09:25:14;;;;;;;9.77;2.80;;;16.20;30.50;;;;;;5031703;28;20032;-60
2022/04/10 09:27:45;;;;;;;6.22;2.63;;;15.70;31.00;;;;;;5031760;28;20029;-51
2022/04/10 09:30:13;;;;;;;6.88;2.55;;;15.60;31.20;;;;;;5031294;28;20033;-57
2022/04/10 09:32:44;;;;;;;6.82;2.85;;;15.50;31.20;;;;;;5033223;28;20072;-54
2022/04/10 09:35:13;;;;;;;8.88;2.75;;;15.30;32.60;;;;;;5032243;28;20104;-50
2022/04/10 09:37:48;;;;;;;5.72;2.20;;;15.40;31.90;;;;;;5030792;28;20033;-51
2022/04/10 09:40:23;;;;;;;7.65;3.42;;;15.60;31.70;;;;;;5014453;28;20111;-52
2022/04/10 09:43:01;;;;;;;5.78;2.58;;;15.60;31.70;;;;;;5031769;28;20075;-54
2022/04/10 09:45:29;;;;;;;7.32;2.50;;;15.60;31.20;;;;;;5031871;28;20129;-52
2022/04/10 09:47:55;;;;;;;6.72;2.15;;;15.40;30.80;;;;;;5031302;28;20025;-52
2022/04/10 09:50:32;;;;;;;3.30;2.13;;;15.20;30.40;;;;;;5030704;28;20040;-55
2022/04/10 09:53:05;;;;;;;5.97;2.65;;;15.00;30.60;;;;;;5032453;28;20025;-62
2022/04/10 09:55:36;;;;;;;3.45;2.05;;;15.00;30.40;;;;;;5031744;28;20372;-57
2022/04/10 09:58:21;;;;;;;6.28;2.13;;;15.10;30.30;;;;;;5032312;28;20048;-53
2022/04/10 10:00:49;;;;;;;3.05;1.80;;;15.50;30.00;;;;;;5032614;28;20021;-55
2022/04/10 10:03:36;;;;;;;6.00;2.20;;;15.90;29.30;;;;;;5032050;28;20024;-54
2022/04/10 10:06:05;;;;;;;5.00;2.63;;;16.20;28.90;;;;;;5032435;28;20022;-55
2022/04/10 10:08:31;;;;;;;5.82;2.58;;;16.10;28.80;;;;;;5031594;28;20021;-53
2022/04/10 10:10:59;;;;;;;4.93;2.05;;;16.20;28.70;;;;;;5032597;28;20033;-51
2022/04/10 10:13:27;;;;;;;4.45;1.92;;;15.90;28.20;;;;;;5015628;28;20044;-52
2022/04/10 10:15:57;;;;;;;5.00;2.50;;;15.70;28.50;;;;;;5031356;28;20294;-56
2022/04/10 10:18:24;;;;;;;5.50;2.42;;;15.50;28.80;;;;;;5030814;28;20029;-52
2022/04/10 10:20:50;;;;;;;6.13;2.40;;;15.30;29.10;;;;;;5031250;28;20025;-54
2022/04/10 10:23:19;;;;;;;4.57;2.28;;;15.00;29.20;;;;;;5032017;28;20448;-55
2022/04/10 10:26:10;;;;;;;5.65;2.30;;;14.80;29.50;;;;;;5032483;28;20097;-54
2022/04/10 10:29:03;;;;;;;6.90;3.38;;;14.70;29.90;;;;;;5031337;28;20425;-57
2022/04/10 10:31:54;;;;;;;6.68;2.40;;;14.80;30.00;;;;;;5030406;28;20080;-57
2022/04/10 10:34:23;;;;;;;4.85;1.95;;;14.90;29.80;;;;;;5030521;28;20211;-55
2022/04/10 10:36:48;;;;;;;6.85;2.67;;;15.20;29.60;;;;;;5031960;28;20127;-52
2022/04/10 10:39:15;;;;;;;5.55;2.53;;;15.40;29.40;;;;;;5029848;28;20045;-53
2022/04/10 10:41:41;;;;;;;4.95;2.78;;;15.50;29.30;;;;;;5032172;28;20398;-54
2022/04/10 10:44:25;;;;;;;11.07;2.60;;;15.40;29.60;;;;;;5030539;28;20041;-53
2022/04/10 10:47:00;;;;;;;5.10;2.72;;;15.10;30.10;;;;;;5031047;28;20433;-51
2022/04/10 10:49:30;;;;;;;7.75;3.10;;;14.90;30.50;;;;;;5031488;28;20030;-54
2022/04/10 10:51:58;;;;;;;7.85;2.65;;;14.70;30.30;;;;;;5031850;28;20491;-54
2022/04/10 10:54:29;;;;;;;7.40;2.80;;;14.50;30.80;;;;;;5031245;28;20091;-54
2022/04/10 10:56:55;;;;;;;5.82;2.85;;;14.20;31.40;;;;;;5032437;28;20033;-50
2022/04/10 10:59:35;;;;;;;6.30;2.83;;;14.00;31.70;;;;;;5031248;28;20166;-55
2022/04/10 11:02:19;;;;;;;6.57;2.70;;;14.00;32.00;;;;;;5029870;28;20419;-55
2022/04/10 11:04:46;;;;;;;5.53;2.90;;;13.90;32.70;;;;;;5030979;28;20079;-52
2022/04/10 11:07:18;;;;;;;5.68;2.90;;;13.90;33.70;;;;;;5030911;28;20105;-55
2022/04/10 11:09:48;;;;;;;4.70;2.53;;;14.10;34.30;;;;;;5031883;28;20033;-55
2022/04/10 11:12:15;;;;;;;6.45;2.88;;;14.40;34.60;;;;;;5031009;28;20057;-59
2022/04/10 11:14:44;;;;;;;8.48;3.25;;;14.80;34.40;;;;;;5034185;28;20378;-57
2022/04/10 11:17:17;;;;;;;6.00;2.72;;;15.00;33.70;;;;;;5035168;28;20028;-55
2022/04/10 11:19:57;;;;;;;4.95;2.60;;;14.90;33.30;;;;;;5035874;28;20037;-54
2022/04/10 11:22:25;;;;;;;7.43;2.42;;;15.00;33.30;;;;;;5034235;28;20025;-53
2022/04/10 11:24:58;;;;;;;6.28;3.05;;;15.00;33.10;;;;;;5035797;28;20032;-57
2022/04/10 11:27:56;;;;;;;6.03;3.33;;;15.00;33.50;;;;;;5033782;28;20180;-55
2022/04/10 11:30:29;;;;;;;4.13;2.20;;;15.30;33.10;;;;;;5017302;28;20043;-62
2022/04/10 11:33:09;;;;;;;4.13;2.20;;;15.40;31.80;;;;;;5034655;28;20476;-53
2022/04/10 11:35:42;;;;;;;4.03;1.88;;;15.30;31.90;;;;;;5035887;28;20257;-51
2022/04/10 11:38:12;;;;;;;3.33;2.17;;;14.80;32.90;;;;;;5034976;28;20024;-52
2022/04/10 11:40:47;;;;;;;5.10;2.80;;;14.40;34.70;;;;;;5034412;28;20029;-54
2022/04/10 11:43:15;;;;;;;4.03;2.63;;;14.30;38.30;;;;;;5033827;28;20033;-55
2022/04/10 11:45:42;;;;;;;6.95;3.38;;;14.10;39.60;;;;;;5034196;28;20499;-54
2022/04/10 11:48:08;;;;;;;5.38;2.90;;;14.00;39.60;;;;;;5035137;28;20033;-52
2022/04/10 11:50:36;;;;;;;4.70;2.97;;;14.00;40.20;;;;;;5034927;28;20029;-55
2022/04/10 11:53:07;;;;;;;3.55;2.65;;;14.10;40.70;;;;;;5034094;28;20041;-50
2022/04/10 11:55:46;;;;;;;8.80;2.78;;;14.10;40.20;;;;;;5035269;28;20026;-52
2022/04/10 11:58:16;;;;;;;5.72;3.20;;;14.30;39.90;;;;;;5034905;28;20131;-55
2022/04/10 12:01:04;;;;;;;5.28;2.60;;;14.50;39.20;;;;;;5035315;28;20036;-48
2022/04/10 12:03:31;;;;;;;4.05;2.50;;;14.70;38.20;;;;;;5034402;28;20021;-53
2022/04/10 12:05:57;;;;;;;4.45;2.38;;;14.80;38.00;;;;;;5033626;28;20487;-53
2022/04/10 12:08:24;;;;;;;3.90;2.55;;;14.80;37.90;;;;;;5033230;28;20032;-52
2022/04/10 12:10:57;;;;;;;3.60;2.10;;;14.70;37.80;;;;;;5035158;28;20078;-53
2022/04/10 12:13:34;;;;;;;4.18;2.17;;;14.50;36.70;;;;;;5034372;28;20169;-54
2022/04/10 12:16:01;;;;;;;3.38;2.00;;;14.40;36.20;;;;;;5033441;28;20033;-53
2022/04/10 12:18:27;;;;;;;4.85;2.35;;;14.20;36.20;;;;;;5032858;28;20025;-47
2022/04/10 12:21:01;;;;;;;4.72;2.33;;;14.10;36.00;;;;;;5034647;28;20100;-52
2022/04/10 12:23:27;;;;;;;4.88;2.25;;;13.90;36.50;;;;;;5032059;28;20038;-52
2022/04/10 12:25:59;;;;;;;5.78;2.40;;;14.10;36.70;;;;;;5031942;28;20033;-51
2022/04/10 12:28:25;;;;;;;5.15;2.67;;;14.30;36.20;;;;;;5032254;28;20124;-55
2022/04/10 12:30:52;;;;;;;5.00;2.45;;;14.20;36.10;;;;;;5033090;28;20036;-48
2022/04/10 12:33:18;;;;;;;5.47;2.40;;;14.10;36.30;;;;;;5031739;28;20030;-51
2022/04/10 12:35:44;;;;;;;3.50;2.22;;;14.00;37.30;;;;;;5032546;28;20030;-49
2022/04/10 12:38:16;;;;;;;4.93;2.88;;;13.80;38.00;;;;;;5031502;28;20112;-52
2022/04/10 12:40:42;;;;;;;7.63;3.15;;;13.60;40.40;;;;;;5032546;28;20121;-51
2022/04/10 12:43:10;;;;;;;7.07;3.58;;;13.00;46.70;;;;;;5033866;28;20499;-50
2022/04/10 12:45:40;;;;;;;6.15;3.58;;;12.40;49.90;;;;;;5033011;28;20022;-56
2022/04/10 12:48:24;;;;;;;5.53;3.35;;;12.20;54.60;;;;;;5032904;28;20026;-56
2022/04/10 12:51:14;;;;;;;6.05;3.15;;;12.10;56.00;;;;;;5034144;28;20061;-53
2022/04/10 12:53:47;;;;;;;4.32;3.28;;;12.10;57.30;;;;;;5032973;28;20484;-53
2022/04/10 12:56:23;;;;;;;5.18;3.97;;;12.00;57.30;;;;;;5033541;28;20021;-51
2022/04/10 12:58:50;;;;;;;5.47;3.85;;;12.00;57.20;;;;;;5032807;28;20025;-53
2022/04/10 13:01:30;;;;;;;5.45;3.70;;;12.10;58.10;;;;;;5033344;28;20037;-56
2022/04/10 13:03:58;;;;;;;5.10;3.42;;;12.40;57.80;;;;;;5033764;28;20032;-51
2022/04/10 13:06:44;;;;;;;5.00;3.47;;;12.40;55.70;;;;;;5033019;28;20029;-57